Time,TemperatureF,DewpointF,PressureIn,WindDirection,WindDirectionDegrees,WindSpeedMPH,WindSpeedGustMPH,Humidity,HourlyPrecipIn,Conditions,Clouds,dailyrainin,SoftwareType,DateUTC
2013-12-19 00:00:00,34.2,22.6,29.93,SSW,203,9.0,16.0,62,0.00,,---,0.00,VWS V14.01,2013-12-19 05:00:00,
2013-12-19 00:01:00,35.7,22.4,29.94,SSW,208,6.0,13.0,58,0.00,,---,0.00,VWS V14.01,2013-12-19 05:01:00,
2013-12-19 00:06:00,35.5,22.6,29.94,SW,218,3.0,15.0,59,0.00,,---,0.00,VWS V14.01,2013-12-19 05:06:00,
2013-12-19 00:11:00,35.4,22.5,29.94,SSW,198,12.0,16.0,59,0.00,,---,0.00,VWS V14.01,2013-12-19 05:11:00,
2013-12-19 00:17:00,35.3,22.8,29.94,SW,222,6.0,16.0,60,0.00,,---,0.00,VWS V14.01,2013-12-19 05:17:00,
2013-12-19 00:21:00,35.2,22.7,29.94,SW,215,8.0,16.0,60,0.00,,---,0.00,VWS V14.01,2013-12-19 05:21:00,
2013-12-19 00:27:00,35.0,22.9,29.94,SW,221,12.0,16.0,61,0.00,,---,0.00,VWS V14.01,2013-12-19 05:27:00,
2013-12-19 00:30:00,33.7,22.8,29.92,SSE,155,8.0,14.0,64,0.00,,---,0.00,VWS V14.01,2013-12-19 05:30:00,
2013-12-19 00:32:00,34.9,22.8,29.94,SW,231,10.0,16.0,61,0.00,,---,0.00,VWS V14.01,2013-12-19 05:32:00,
2013-12-19 00:37:00,34.7,22.6,29.93,South,188,8.0,16.0,61,0.00,,---,0.00,VWS V14.01,2013-12-19 05:37:00,
2013-12-19 00:42:00,34.6,22.9,29.93,SW,231,5.0,16.0,62,0.00,,---,0.00,VWS V14.01,2013-12-19 05:42:00,
2013-12-19 00:47:00,34.4,22.7,29.93,SW,231,14.0,16.0,62,0.00,,---,0.00,VWS V14.01,2013-12-19 05:47:00,
2013-12-19 00:52:00,34.3,22.6,29.93,SW,225,12.0,16.0,62,0.00,,---,0.00,VWS V14.01,2013-12-19 05:52:00,
2013-12-19 00:57:00,34.3,22.6,29.93,SSW,209,7.0,16.0,62,0.00,,---,0.00,VWS V14.01,2013-12-19 05:57:00,
2013-12-19 01:00:00,33.2,22.7,29.92,SSW,200,6.0,12.0,65,0.00,,---,0.00,VWS V14.01,2013-12-19 06:00:00,
2013-12-19 01:02:00,34.2,22.5,29.93,WSW,239,4.0,14.0,62,0.00,,---,0.00,VWS V14.01,2013-12-19 06:02:00,
2013-12-19 01:07:00,34.1,22.8,29.93,SSW,197,4.0,14.0,63,0.00,,---,0.00,VWS V14.01,2013-12-19 06:07:00,
2013-12-19 01:12:00,34.0,22.7,29.93,SW,235,10.0,14.0,63,0.00,,---,0.00,VWS V14.01,2013-12-19 06:12:00,
2013-12-19 01:17:00,33.9,22.6,29.92,SSW,207,6.0,14.0,63,0.00,,---,0.00,VWS V14.01,2013-12-19 06:17:00,
2013-12-19 01:22:00,33.9,22.6,29.92,SSW,200,7.0,14.0,63,0.00,,---,0.00,VWS V14.01,2013-12-19 06:22:00,
2013-12-19 01:27:00,33.8,22.9,29.92,SSW,211,4.0,14.0,64,0.00,,---,0.00,VWS V14.01,2013-12-19 06:27:00,
2013-12-19 01:30:00,32.8,23.1,29.92,SSW,198,1.0,10.0,67,0.00,,---,0.00,VWS V14.01,2013-12-19 06:30:00,
2013-12-19 01:32:00,33.6,22.7,29.92,SSW,211,10.0,11.0,64,0.00,,---,0.00,VWS V14.01,2013-12-19 06:32:00,
2013-12-19 01:37:00,33.5,22.6,29.92,SSE,149,4.0,11.0,64,0.00,,---,0.00,VWS V14.01,2013-12-19 06:37:00,
2013-12-19 01:42:00,33.4,22.5,29.92,WSW,255,2.0,12.0,64,0.00,,---,0.00,VWS V14.01,2013-12-19 06:42:00,
2013-12-19 01:47:00,33.3,22.8,29.92,SW,222,2.0,12.0,65,0.00,,---,0.00,VWS V14.01,2013-12-19 06:47:00,
2013-12-19 01:52:00,33.2,22.7,29.92,SSW,208,2.0,12.0,65,0.00,,---,0.00,VWS V14.01,2013-12-19 06:52:00,
2013-12-19 01:57:00,33.2,22.7,29.92,South,190,3.0,12.0,65,0.00,,---,0.00,VWS V14.01,2013-12-19 06:57:00,
2013-12-19 02:00:00,33.0,23.6,29.93,SSW,195,3.0,11.0,68,0.00,,---,0.00,VWS V14.01,2013-12-19 07:00:00,
2013-12-19 02:02:00,33.1,22.6,29.92,SW,229,2.0,9.0,65,0.00,,---,0.00,VWS V14.01,2013-12-19 07:02:00,
2013-12-19 02:07:00,32.9,22.8,29.92,SW,218,7.0,9.0,66,0.00,,---,0.00,VWS V14.01,2013-12-19 07:07:00,
2013-12-19 02:12:00,32.9,22.8,29.92,SSW,203,2.0,9.0,66,0.00,,---,0.00,VWS V14.01,2013-12-19 07:12:00,
2013-12-19 02:17:00,33.0,22.9,29.92,WSW,242,5.0,9.0,66,0.00,,---,0.00,VWS V14.01,2013-12-19 07:17:00,
2013-12-19 02:22:00,33.0,22.9,29.92,SSW,204,5.0,10.0,66,0.00,,---,0.00,VWS V14.01,2013-12-19 07:22:00,
2013-12-19 02:27:00,32.9,23.2,29.92,WSW,246,2.0,10.0,67,0.00,,---,0.00,VWS V14.01,2013-12-19 07:27:00,
2013-12-19 02:30:00,33.1,24.4,29.93,South,183,2.0,11.0,70,0.00,,---,0.00,VWS V14.01,2013-12-19 07:30:00,
2013-12-19 02:32:00,32.8,23.1,29.92,SW,222,6.0,8.0,67,0.00,,---,0.00,VWS V14.01,2013-12-19 07:32:00,
2013-12-19 02:37:00,32.9,23.2,29.93,SSW,208,4.0,11.0,67,0.00,,---,0.00,VWS V14.01,2013-12-19 07:37:00,
2013-12-19 02:42:00,32.8,23.1,29.93,SSW,203,2.0,11.0,67,0.00,,---,0.00,VWS V14.01,2013-12-19 07:42:00,
2013-12-19 02:47:00,32.9,23.5,29.93,SSW,211,5.0,11.0,68,0.00,,---,0.00,VWS V14.01,2013-12-19 07:47:00,
2013-12-19 02:52:00,33.0,23.6,29.93,South,187,4.0,11.0,68,0.00,,---,0.00,VWS V14.01,2013-12-19 07:52:00,
2013-12-19 02:57:00,33.0,23.6,29.93,SSE,160,2.0,11.0,68,0.00,,---,0.00,VWS V14.01,2013-12-19 07:57:00,
2013-12-19 03:00:00,33.4,25.4,29.94,SW,235,5.0,9.0,72,0.00,,---,0.00,VWS V14.01,2013-12-19 08:00:00,
2013-12-19 03:02:00,33.0,23.6,29.93,SSW,198,4.0,11.0,68,0.00,,---,0.00,VWS V14.01,2013-12-19 08:02:00,
2013-12-19 03:07:00,33.1,24.0,29.93,SSE,161,2.0,11.0,69,0.00,,---,0.00,VWS V14.01,2013-12-19 08:07:00,
2013-12-19 03:12:00,33.1,24.0,29.93,SSW,204,5.0,11.0,69,0.00,,---,0.00,VWS V14.01,2013-12-19 08:12:00,
2013-12-19 03:17:00,33.2,24.1,29.93,SW,217,3.0,11.0,69,0.00,,---,0.00,VWS V14.01,2013-12-19 08:17:00,
2013-12-19 03:22:00,33.1,24.4,29.93,SW,228,5.0,11.0,70,0.00,,---,0.00,VWS V14.01,2013-12-19 08:22:00,
2013-12-19 03:27:00,33.2,24.5,29.93,WSW,238,1.0,11.0,70,0.00,,---,0.00,VWS V14.01,2013-12-19 08:27:00,
2013-12-19 03:30:00,33.5,26.1,29.94,SSW,205,2.0,7.0,74,0.00,,---,0.00,VWS V14.01,2013-12-19 08:30:00,
2013-12-19 03:32:00,33.1,24.4,29.93,SW,215,0.0,4.0,70,0.00,,---,0.00,VWS V14.01,2013-12-19 08:32:00,
2013-12-19 03:37:00,33.1,24.7,29.93,South,188,2.0,6.0,71,0.00,,---,0.00,VWS V14.01,2013-12-19 08:37:00,
2013-12-19 03:42:00,33.2,24.8,29.94,WSW,254,3.0,9.0,71,0.00,,---,0.00,VWS V14.01,2013-12-19 08:42:00,
2013-12-19 03:47:00,33.3,25.3,29.93,SSW,203,1.0,9.0,72,0.00,,---,0.00,VWS V14.01,2013-12-19 08:47:00,
2013-12-19 03:52:00,33.2,25.2,29.94,SSW,210,1.0,9.0,72,0.00,,---,0.00,VWS V14.01,2013-12-19 08:52:00,
2013-12-19 03:57:00,33.4,25.4,29.94,SW,215,6.0,9.0,72,0.00,,---,0.00,VWS V14.01,2013-12-19 08:57:00,
2013-12-19 04:00:00,33.6,26.5,29.94,SSW,212,2.0,8.0,75,0.00,,---,0.00,VWS V14.01,2013-12-19 09:00:00,
2013-12-19 04:02:00,33.5,25.5,29.94,SE,134,1.0,5.0,72,0.00,,---,0.00,VWS V14.01,2013-12-19 09:02:00,
2013-12-19 04:08:00,33.4,25.7,29.94,SW,215,3.0,6.0,73,0.00,,---,0.00,VWS V14.01,2013-12-19 09:08:00,
2013-12-19 04:13:00,33.4,25.7,29.94,SSW,201,2.0,7.0,73,0.00,,---,0.00,VWS V14.01,2013-12-19 09:13:00,
2013-12-19 04:18:00,33.5,25.8,29.94,SSW,198,4.0,7.0,73,0.00,,---,0.00,VWS V14.01,2013-12-19 09:18:00,
2013-12-19 04:23:00,33.5,25.8,29.94,SSW,207,3.0,7.0,73,0.00,,---,0.00,VWS V14.01,2013-12-19 09:23:00,
2013-12-19 04:28:00,33.5,26.1,29.94,SW,233,2.0,7.0,74,0.00,,---,0.00,VWS V14.01,2013-12-19 09:28:00,
2013-12-19 04:30:00,33.8,27.4,29.93,SE,145,1.0,8.0,77,0.00,,---,0.00,VWS V14.01,2013-12-19 09:30:00,
2013-12-19 04:33:00,33.4,26.0,29.94,SSW,210,3.0,4.0,74,0.00,,---,0.00,VWS V14.01,2013-12-19 09:33:00,
2013-12-19 04:38:00,33.5,26.1,29.93,SSW,200,3.0,8.0,74,0.00,,---,0.00,VWS V14.01,2013-12-19 09:38:00,
2013-12-19 04:43:00,33.5,26.4,29.93,SE,145,2.0,8.0,75,0.00,,---,0.00,VWS V14.01,2013-12-19 09:43:00,
2013-12-19 04:48:00,33.5,26.4,29.94,SW,228,4.0,8.0,75,0.00,,---,0.00,VWS V14.01,2013-12-19 09:48:00,
2013-12-19 04:53:00,33.6,26.5,29.94,SSW,208,3.0,8.0,75,0.00,,---,0.00,VWS V14.01,2013-12-19 09:53:00,
2013-12-19 04:58:00,33.5,26.4,29.94,SSW,192,3.0,8.0,75,0.00,,---,0.00,VWS V14.01,2013-12-19 09:58:00,
2013-12-19 05:00:00,34.5,28.4,29.94,SW,218,4.0,8.0,78,0.00,,---,0.00,VWS V14.01,2013-12-19 10:00:00,
2013-12-19 05:03:00,33.5,26.4,29.94,SW,216,2.0,4.0,75,0.00,,---,0.00,VWS V14.01,2013-12-19 10:03:00,
2013-12-19 05:08:00,33.5,26.8,29.94,SSW,204,3.0,5.0,76,0.00,,---,0.00,VWS V14.01,2013-12-19 10:08:00,
2013-12-19 05:13:00,33.7,27.0,29.94,SSW,208,1.0,7.0,76,0.00,,---,0.00,VWS V14.01,2013-12-19 10:13:00,
2013-12-19 05:18:00,33.7,27.0,29.94,SW,218,1.0,7.0,76,0.00,,---,0.00,VWS V14.01,2013-12-19 10:18:00,
2013-12-19 05:23:00,33.7,27.3,29.93,South,191,1.0,7.0,77,0.00,,---,0.00,VWS V14.01,2013-12-19 10:23:00,
2013-12-19 05:28:00,33.8,27.4,29.93,SW,236,1.0,8.0,77,0.00,,---,0.00,VWS V14.01,2013-12-19 10:28:00,
2013-12-19 05:30:00,34.7,29.2,29.94,South,173,2.0,8.0,80,0.00,,---,0.00,VWS V14.01,2013-12-19 10:30:00,
2013-12-19 05:33:00,33.8,27.4,29.94,SSW,197,4.0,7.0,77,0.00,,---,0.00,VWS V14.01,2013-12-19 10:33:00,
2013-12-19 05:38:00,33.9,27.8,29.94,SSE,164,3.0,7.0,78,0.00,,---,0.00,VWS V14.01,2013-12-19 10:38:00,
2013-12-19 05:43:00,34.0,27.9,29.94,South,184,1.0,7.0,78,0.00,,---,0.00,VWS V14.01,2013-12-19 10:43:00,
2013-12-19 05:48:00,34.2,28.1,29.94,SSW,205,2.0,7.0,78,0.00,,---,0.00,VWS V14.01,2013-12-19 10:48:00,
2013-12-19 05:53:00,34.4,28.3,29.94,SE,136,3.0,8.0,78,0.00,,---,0.00,VWS V14.01,2013-12-19 10:53:00,
2013-12-19 05:58:00,34.5,28.4,29.94,SSW,201,5.0,8.0,78,0.00,,---,0.00,VWS V14.01,2013-12-19 10:58:00,
2013-12-19 06:00:00,34.6,29.4,29.94,SSE,152,1.0,6.0,81,0.00,,---,0.00,VWS V14.01,2013-12-19 11:00:00,
2013-12-19 06:03:00,34.5,28.4,29.94,South,169,1.0,6.0,78,0.00,,---,0.00,VWS V14.01,2013-12-19 11:03:00,
2013-12-19 06:08:00,34.5,28.7,29.94,ESE,121,3.0,8.0,79,0.00,,---,0.00,VWS V14.01,2013-12-19 11:08:00,
2013-12-19 06:13:00,34.5,28.7,29.94,SSE,160,3.0,8.0,79,0.00,,---,0.00,VWS V14.01,2013-12-19 11:13:00,
2013-12-19 06:18:00,34.6,28.8,29.94,SSW,208,2.0,8.0,79,0.00,,---,0.00,VWS V14.01,2013-12-19 11:18:00,
2013-12-19 06:23:00,34.8,29.3,29.94,SSE,150,2.0,8.0,80,0.00,,---,0.00,VWS V14.01,2013-12-19 11:23:00,
2013-12-19 06:28:00,34.7,28.9,29.94,South,181,1.0,8.0,79,0.00,,---,0.00,VWS V14.01,2013-12-19 11:28:00,
2013-12-19 06:30:00,33.1,28.5,29.95,SE,134,1.0,5.0,83,0.00,,---,0.00,VWS V14.01,2013-12-19 11:30:00,
2013-12-19 06:33:00,34.7,29.2,29.94,SW,225,2.0,6.0,80,0.00,,---,0.00,VWS V14.01,2013-12-19 11:33:00,
2013-12-19 06:38:00,34.7,29.2,29.94,South,176,4.0,6.0,80,0.00,,---,0.00,VWS V14.01,2013-12-19 11:38:00,
2013-12-19 06:43:00,34.7,29.2,29.94,South,188,2.0,6.0,80,0.00,,---,0.00,VWS V14.01,2013-12-19 11:43:00,
2013-12-19 06:48:00,34.7,29.2,29.94,SSW,198,3.0,6.0,80,0.00,,---,0.00,VWS V14.01,2013-12-19 11:48:00,
2013-12-19 06:53:00,34.8,29.6,29.94,SSE,153,1.0,6.0,81,0.00,,---,0.00,VWS V14.01,2013-12-19 11:53:00,
2013-12-19 06:58:00,34.7,29.2,29.94,South,176,1.0,6.0,80,0.00,,---,0.00,VWS V14.01,2013-12-19 11:58:00,
2013-12-19 07:00:00,32.3,28.3,29.95,SSE,167,1.0,3.0,85,0.00,,---,0.00,VWS V14.01,2013-12-19 12:00:00,
2013-12-19 07:03:00,34.4,29.2,29.94,SSE,159,1.0,3.0,81,0.00,,---,0.00,VWS V14.01,2013-12-19 12:03:00,
2013-12-19 07:08:00,34.1,28.9,29.94,SE,134,3.0,5.0,81,0.00,,---,0.00,VWS V14.01,2013-12-19 12:08:00,
2013-12-19 07:13:00,33.7,28.8,29.94,SSW,192,1.0,5.0,82,0.00,,---,0.00,VWS V14.01,2013-12-19 12:13:00,
2013-12-19 07:18:00,33.6,28.7,29.95,SE,129,1.0,5.0,82,0.00,,---,0.00,VWS V14.01,2013-12-19 12:18:00,
2013-12-19 07:23:00,33.2,28.3,29.95,SE,129,1.0,5.0,82,0.00,,---,0.00,VWS V14.01,2013-12-19 12:23:00,
2013-12-19 07:28:00,33.1,28.5,29.95,SE,141,1.0,5.0,83,0.00,,---,0.00,VWS V14.01,2013-12-19 12:28:00,
2013-12-19 07:30:00,33.3,29.3,29.95,SSW,205,2.0,4.0,85,0.00,,---,0.00,VWS V14.01,2013-12-19 12:30:00,
2013-12-19 07:33:00,32.9,28.3,29.95,SSE,152,1.0,2.0,83,0.00,,---,0.00,VWS V14.01,2013-12-19 12:33:00,
2013-12-19 07:38:00,32.6,28.0,29.95,SSW,198,1.0,3.0,83,0.00,,---,0.00,VWS V14.01,2013-12-19 12:38:00,
2013-12-19 07:43:00,32.4,27.8,29.95,SE,146,2.0,3.0,83,0.00,,---,0.00,VWS V14.01,2013-12-19 12:43:00,
2013-12-19 07:48:00,32.2,27.9,29.95,SSW,198,0.0,3.0,84,0.00,,---,0.00,VWS V14.01,2013-12-19 12:48:00,
2013-12-19 07:53:00,32.2,28.2,29.95,South,176,2.0,3.0,85,0.00,,---,0.00,VWS V14.01,2013-12-19 12:53:00,
2013-12-19 07:58:00,32.3,28.3,29.95,SSE,148,0.0,3.0,85,0.00,,---,0.00,VWS V14.01,2013-12-19 12:58:00,
2013-12-19 08:00:00,35.4,31.1,29.97,South,190,2.0,5.0,84,0.00,,---,0.00,VWS V14.01,2013-12-19 13:00:00,
2013-12-19 08:03:00,32.3,28.3,29.95,SE,132,1.0,2.0,85,0.00,,---,0.00,VWS V14.01,2013-12-19 13:03:00,
2013-12-19 08:08:00,32.3,28.3,29.95,SE,143,0.0,3.0,85,0.00,,---,0.00,VWS V14.01,2013-12-19 13:08:00,
2013-12-19 08:13:00,32.4,28.7,29.95,South,178,2.0,3.0,86,0.00,,---,0.00,VWS V14.01,2013-12-19 13:13:00,
2013-12-19 08:18:00,32.8,28.8,29.95,SE,141,3.0,4.0,85,0.00,,---,0.00,VWS V14.01,2013-12-19 13:18:00,
2013-12-19 08:23:00,33.1,29.1,29.95,SSW,203,2.0,4.0,85,0.00,,---,0.00,VWS V14.01,2013-12-19 13:23:00,
2013-12-19 08:29:00,33.2,29.2,29.95,South,186,2.0,4.0,85,0.00,,---,0.00,VWS V14.01,2013-12-19 13:29:00,
2013-12-19 08:30:00,37.4,32.4,29.98,SSW,210,1.0,6.0,82,0.00,,---,0.00,VWS V14.01,2013-12-19 13:30:00,
2013-12-19 08:33:00,33.3,29.3,29.95,South,186,2.0,2.0,85,0.00,,---,0.00,VWS V14.01,2013-12-19 13:33:00,
2013-12-19 08:39:00,33.6,29.6,29.96,SSW,204,2.0,4.0,85,0.00,,---,0.00,VWS V14.01,2013-12-19 13:39:00,
2013-12-19 08:44:00,34.1,30.1,29.96,SSE,155,2.0,4.0,85,0.00,,---,0.00,VWS V14.01,2013-12-19 13:44:00,
2013-12-19 08:49:00,34.6,30.6,29.97,SSW,193,2.0,5.0,85,0.00,,---,0.00,VWS V14.01,2013-12-19 13:49:00,
2013-12-19 08:54:00,35.0,30.7,29.97,SSW,193,2.0,5.0,84,0.00,,---,0.00,VWS V14.01,2013-12-19 13:54:00,
2013-12-19 08:59:00,35.3,31.0,29.97,SSW,201,1.0,5.0,84,0.00,,---,0.00,VWS V14.01,2013-12-19 13:59:00,
2013-12-19 09:00:00,40.4,34.4,29.98,SW,235,7.0,10.0,79,0.00,,---,0.00,VWS V14.01,2013-12-19 14:00:00,
2013-12-19 09:04:00,35.5,30.9,29.97,SW,217,4.0,5.0,83,0.00,,---,0.00,VWS V14.01,2013-12-19 14:04:00,
2013-12-19 09:09:00,35.8,31.5,29.97,SW,222,3.0,5.0,84,0.00,,---,0.00,VWS V14.01,2013-12-19 14:09:00,
2013-12-19 09:14:00,36.1,31.7,29.97,SSE,159,2.0,6.0,84,0.00,,---,0.00,VWS V14.01,2013-12-19 14:14:00,
2013-12-19 09:19:00,36.5,31.8,29.98,SSW,203,2.0,6.0,83,0.00,,---,0.00,VWS V14.01,2013-12-19 14:19:00,
2013-12-19 09:24:00,36.9,32.2,29.98,SSW,212,1.0,6.0,83,0.00,,---,0.00,VWS V14.01,2013-12-19 14:24:00,
2013-12-19 09:29:00,37.3,32.3,29.98,SSE,159,4.0,6.0,82,0.00,,---,0.00,VWS V14.01,2013-12-19 14:29:00,
2013-12-19 09:30:00,42.2,35.2,30.00,ESE,115,4.0,11.0,76,0.00,,---,0.00,VWS V14.01,2013-12-19 14:30:00,
2013-12-19 09:34:00,37.7,32.7,29.98,SE,145,3.0,5.0,82,0.00,,---,0.00,VWS V14.01,2013-12-19 14:34:00,
2013-12-19 09:39:00,38.3,33.3,29.98,SSW,208,3.0,6.0,82,0.00,,---,0.00,VWS V14.01,2013-12-19 14:39:00,
2013-12-19 09:44:00,38.9,33.6,29.98,SW,225,4.0,6.0,81,0.00,,---,0.00,VWS V14.01,2013-12-19 14:44:00,
2013-12-19 09:49:00,39.4,33.8,29.98,SSW,208,5.0,6.0,80,0.00,,---,0.00,VWS V14.01,2013-12-19 14:49:00,
2013-12-19 09:54:00,39.9,34.2,29.98,SW,214,4.0,8.0,80,0.00,,---,0.00,VWS V14.01,2013-12-19 14:54:00,
2013-12-19 09:59:00,40.3,34.3,29.98,SSW,194,4.0,10.0,79,0.00,,---,0.00,VWS V14.01,2013-12-19 14:59:00,
2013-12-19 10:00:00,43.4,35.7,30.00,West,261,4.0,11.0,74,0.00,,---,0.00,VWS V14.01,2013-12-19 15:00:00,
2013-12-19 10:04:00,40.6,34.3,29.99,SSW,207,5.0,7.0,78,0.00,,---,0.00,VWS V14.01,2013-12-19 15:04:00,
2013-12-19 10:09:00,40.9,34.6,29.99,SSE,168,2.0,8.0,78,0.00,,---,0.00,VWS V14.01,2013-12-19 15:09:00,
2013-12-19 10:14:00,41.2,34.9,29.99,SSW,198,6.0,9.0,78,0.00,,---,0.00,VWS V14.01,2013-12-19 15:14:00,
2013-12-19 10:19:00,41.5,34.8,29.99,South,190,6.0,9.0,77,0.00,,---,0.00,VWS V14.01,2013-12-19 15:19:00,
2013-12-19 10:24:00,41.8,35.1,29.99,SW,231,2.0,9.0,77,0.00,,---,0.00,VWS V14.01,2013-12-19 15:24:00,
2013-12-19 10:29:00,42.1,35.1,30.00,SW,231,4.0,11.0,76,0.00,,---,0.00,VWS V14.01,2013-12-19 15:29:00,
2013-12-19 10:30:00,43.9,35.8,30.00,SSW,211,2.0,9.0,73,0.05,,---,0.05,VWS V14.01,2013-12-19 15:30:00,
2013-12-19 10:34:00,42.3,35.3,30.00,SSE,148,2.0,6.0,76,0.00,,---,0.00,VWS V14.01,2013-12-19 15:34:00,
2013-12-19 10:39:00,42.6,35.2,30.00,SW,235,6.0,8.0,75,0.00,,---,0.00,VWS V14.01,2013-12-19 15:39:00,
2013-12-19 10:44:00,42.8,35.4,30.00,South,176,4.0,9.0,75,0.00,,---,0.00,VWS V14.01,2013-12-19 15:44:00,
2013-12-19 10:49:00,43.1,35.7,30.00,SW,224,2.0,9.0,75,0.00,,---,0.00,VWS V14.01,2013-12-19 15:49:00,
2013-12-19 10:54:00,43.2,35.5,30.00,South,190,4.0,11.0,74,0.00,,---,0.00,VWS V14.01,2013-12-19 15:54:00,
2013-12-19 10:59:00,43.4,35.7,30.00,SSW,198,3.0,11.0,74,0.00,,---,0.00,VWS V14.01,2013-12-19 15:59:00,
2013-12-19 11:00:00,44.3,36.2,30.00,SSW,203,3.0,10.0,73,0.10,,---,0.10,VWS V14.01,2013-12-19 16:00:00,
2013-12-19 11:04:00,43.5,35.8,30.00,SSE,167,6.0,7.0,74,0.00,,---,0.00,VWS V14.01,2013-12-19 16:04:00,
2013-12-19 11:09:00,43.7,36.0,30.00,SW,225,6.0,9.0,74,0.00,,---,0.00,VWS V14.01,2013-12-19 16:09:00,
2013-12-19 11:14:00,43.8,35.7,30.00,SW,235,7.0,9.0,73,0.00,,---,0.00,VWS V14.01,2013-12-19 16:14:00,
2013-12-19 11:19:00,43.8,35.7,30.00,SW,217,3.0,9.0,73,0.02,,---,0.02,VWS V14.01,2013-12-19 16:19:00,
2013-12-19 11:24:00,43.8,35.7,30.00,SW,219,4.0,9.0,73,0.03,,---,0.03,VWS V14.01,2013-12-19 16:24:00,
2013-12-19 11:29:00,43.8,35.7,30.00,SW,228,3.0,9.0,73,0.05,,---,0.05,VWS V14.01,2013-12-19 16:29:00,
2013-12-19 11:30:00,44.5,36.4,29.99,SE,136,1.0,11.0,73,0.14,,---,0.14,VWS V14.01,2013-12-19 16:30:00,
2013-12-19 11:34:00,43.9,36.2,30.00,WSW,255,5.0,10.0,74,0.06,,---,0.06,VWS V14.01,2013-12-19 16:34:00,
2013-12-19 11:39:00,43.9,35.8,30.00,SW,228,2.0,10.0,73,0.07,,---,0.07,VWS V14.01,2013-12-19 16:39:00,
2013-12-19 11:44:00,44.0,35.9,30.00,South,190,2.0,10.0,73,0.08,,---,0.08,VWS V14.01,2013-12-19 16:44:00,
2013-12-19 11:49:00,44.1,36.0,30.00,WSW,249,3.0,10.0,73,0.09,,---,0.09,VWS V14.01,2013-12-19 16:49:00,
2013-12-19 11:54:00,44.2,36.1,30.00,SE,139,3.0,10.0,73,0.09,,---,0.09,VWS V14.01,2013-12-19 16:54:00,
2013-12-19 11:59:00,44.3,36.2,30.00,South,177,3.0,10.0,73,0.10,,---,0.10,VWS V14.01,2013-12-19 16:59:00,
2013-12-19 12:00:00,44.4,36.3,29.98,WSW,248,2.0,11.0,73,0.11,,---,0.16,VWS V14.01,2013-12-19 17:00:00,
2013-12-19 12:04:00,44.4,36.3,29.99,SSW,210,5.0,11.0,73,0.11,,---,0.11,VWS V14.01,2013-12-19 17:04:00,
2013-12-19 12:09:00,44.4,36.3,29.99,SSW,204,7.0,11.0,73,0.12,,---,0.12,VWS V14.01,2013-12-19 17:09:00,
2013-12-19 12:14:00,44.3,36.2,29.99,SW,214,5.0,11.0,73,0.12,,---,0.12,VWS V14.01,2013-12-19 17:14:00,
2013-12-19 12:19:00,44.4,36.3,29.99,SSW,212,1.0,11.0,73,0.13,,---,0.13,VWS V14.01,2013-12-19 17:19:00,
2013-12-19 12:24:00,44.4,36.3,29.99,WSW,250,1.0,11.0,73,0.13,,---,0.13,VWS V14.01,2013-12-19 17:24:00,
2013-12-19 12:29:00,44.5,36.4,29.99,SW,215,2.0,11.0,73,0.14,,---,0.14,VWS V14.01,2013-12-19 17:29:00,
2013-12-19 12:30:00,44.6,36.5,29.97,SW,217,0.0,7.0,73,0.07,,---,0.17,VWS V14.01,2013-12-19 17:30:00,
2013-12-19 12:34:00,44.6,36.2,29.98,SSW,203,7.0,8.0,72,0.09,,---,0.14,VWS V14.01,2013-12-19 17:34:00,
2013-12-19 12:39:00,44.5,36.4,29.99,South,181,4.0,8.0,73,0.10,,---,0.15,VWS V14.01,2013-12-19 17:39:00,
2013-12-19 12:44:00,44.4,36.3,29.99,WSW,238,3.0,11.0,73,0.10,,---,0.15,VWS V14.01,2013-12-19 17:44:00,
2013-12-19 12:49:00,44.4,36.3,29.98,SSW,208,3.0,11.0,73,0.10,,---,0.15,VWS V14.01,2013-12-19 17:49:00,
2013-12-19 12:54:00,44.3,36.2,29.98,SW,214,7.0,11.0,73,0.11,,---,0.16,VWS V14.01,2013-12-19 17:54:00,
2013-12-19 12:59:00,44.4,36.3,29.98,SW,221,4.0,11.0,73,0.11,,---,0.16,VWS V14.01,2013-12-19 17:59:00,
2013-12-19 13:00:00,44.6,36.5,29.97,SSW,211,2.0,9.0,73,0.03,,---,0.17,VWS V14.01,2013-12-19 18:00:00,
2013-12-19 13:04:00,44.4,36.3,29.98,SSE,154,2.0,7.0,73,0.06,,---,0.16,VWS V14.01,2013-12-19 18:04:00,
2013-12-19 13:05:00,44.4,36.3,29.98,SW,225,6.0,7.0,73,0.06,,---,0.16,VWS V14.01,2013-12-19 18:05:00,
2013-12-19 13:10:00,44.3,36.2,29.97,SW,230,2.0,7.0,73,0.07,,---,0.17,VWS V14.01,2013-12-19 18:10:00,
2013-12-19 13:15:00,44.5,36.4,29.97,SW,226,5.0,7.0,73,0.07,,---,0.17,VWS V14.01,2013-12-19 18:15:00,
2013-12-19 13:20:00,44.5,36.4,29.97,SW,231,1.0,7.0,73,0.07,,---,0.17,VWS V14.01,2013-12-19 18:20:00,
2013-12-19 13:25:00,44.5,36.4,29.97,South,190,1.0,7.0,73,0.07,,---,0.17,VWS V14.01,2013-12-19 18:25:00,
2013-12-19 13:30:00,44.6,36.5,29.97,SW,232,0.0,0.0,73,0.03,,---,0.17,VWS V14.01,2013-12-19 18:30:00,
2013-12-19 13:35:00,44.5,36.4,29.97,SW,232,3.0,9.0,73,0.03,,---,0.17,VWS V14.01,2013-12-19 18:35:00,
2013-12-19 13:40:00,44.5,36.4,29.97,SSE,155,2.0,9.0,73,0.03,,---,0.17,VWS V14.01,2013-12-19 18:40:00,
2013-12-19 13:45:00,44.5,36.4,29.97,SSW,203,4.0,9.0,73,0.03,,---,0.17,VWS V14.01,2013-12-19 18:45:00,
2013-12-19 13:50:00,44.4,36.3,29.97,SW,215,3.0,9.0,73,0.03,,---,0.17,VWS V14.01,2013-12-19 18:50:00,
2013-12-19 13:55:00,44.5,36.4,29.97,SSW,208,1.0,9.0,73,0.03,,---,0.17,VWS V14.01,2013-12-19 18:55:00,
2013-12-19 14:00:00,44.6,36.5,29.97,WSW,243,4.0,4.0,73,0.01,,---,0.17,VWS V14.01,2013-12-19 19:00:00,
2013-12-19 14:05:00,44.6,36.5,29.96,SSW,194,2.0,4.0,73,0.01,,---,0.17,VWS V14.01,2013-12-19 19:05:00,
2013-12-19 14:10:00,44.6,36.5,29.96,SW,225,3.0,5.0,73,0.01,,---,0.17,VWS V14.01,2013-12-19 19:10:00,
2013-12-19 14:15:00,44.6,36.5,29.96,WNW,284,2.0,5.0,73,0.01,,---,0.17,VWS V14.01,2013-12-19 19:15:00,
2013-12-19 14:20:00,44.4,36.3,29.95,West,267,1.0,7.0,73,0.01,,---,0.17,VWS V14.01,2013-12-19 19:20:00,
2013-12-19 14:25:00,44.4,36.7,29.96,SSW,204,2.0,7.0,74,0.01,,---,0.17,VWS V14.01,2013-12-19 19:25:00,
2013-12-19 14:30:00,44.3,36.5,29.96,SW,215,3.0,4.0,74,0.00,,---,0.17,VWS V14.01,2013-12-19 19:30:00,
2013-12-19 14:35:00,44.3,36.5,29.96,SSW,203,4.0,5.0,74,0.00,,---,0.17,VWS V14.01,2013-12-19 19:35:00,
2013-12-19 14:40:00,44.3,36.5,29.96,SSW,210,2.0,5.0,74,0.00,,---,0.17,VWS V14.01,2013-12-19 19:40:00,
2013-12-19 14:45:00,44.3,36.5,29.96,SW,214,5.0,8.0,74,0.00,,---,0.17,VWS V14.01,2013-12-19 19:45:00,
2013-12-19 14:50:00,44.1,36.4,29.96,South,174,2.0,8.0,74,0.00,,---,0.17,VWS V14.01,2013-12-19 19:50:00,
2013-12-19 14:55:00,44.1,36.7,29.96,SW,218,4.0,8.0,75,0.00,,---,0.17,VWS V14.01,2013-12-19 19:55:00,
2013-12-19 15:00:00,44.1,36.7,29.96,South,190,4.0,4.0,75,0.00,,---,0.17,VWS V14.01,2013-12-19 20:00:00,
2013-12-19 15:05:00,44.1,36.7,29.96,SSW,212,1.0,4.0,75,0.00,,---,0.17,VWS V14.01,2013-12-19 20:05:00,
2013-12-19 15:10:00,44.0,36.6,29.96,WSW,238,3.0,5.0,75,0.00,,---,0.17,VWS V14.01,2013-12-19 20:10:00,
2013-12-19 15:15:00,43.9,36.8,29.96,SW,217,0.0,6.0,76,0.00,,---,0.17,VWS V14.01,2013-12-19 20:15:00,
2013-12-19 15:20:00,43.9,36.8,29.96,SSW,210,4.0,6.0,76,0.00,,---,0.17,VWS V14.01,2013-12-19 20:20:00,
2013-12-19 15:25:00,43.8,36.7,29.96,SSW,211,5.0,6.0,76,0.00,,---,0.17,VWS V14.01,2013-12-19 20:25:00,
2013-12-19 15:30:00,43.7,36.6,29.96,WSW,237,3.0,4.0,76,0.00,,---,0.17,VWS V14.01,2013-12-19 20:30:00,
2013-12-19 15:35:00,43.7,36.6,29.96,SW,215,3.0,5.0,76,0.00,,---,0.17,VWS V14.01,2013-12-19 20:35:00,
2013-12-19 15:40:00,43.7,37.0,29.96,SW,222,2.0,5.0,77,0.00,,---,0.17,VWS V14.01,2013-12-19 20:40:00,
2013-12-19 15:45:00,43.6,36.9,29.96,SW,215,3.0,5.0,77,0.00,,---,0.17,VWS V14.01,2013-12-19 20:45:00,
2013-12-19 15:50:00,43.6,36.9,29.96,SW,221,3.0,5.0,77,0.00,,---,0.17,VWS V14.01,2013-12-19 20:50:00,
2013-12-19 15:55:00,43.5,36.8,29.96,South,191,1.0,5.0,77,0.00,,---,0.17,VWS V14.01,2013-12-19 20:55:00,
2013-12-19 16:00:00,43.4,36.7,29.96,SE,145,0.0,1.0,77,0.00,,---,0.17,VWS V14.01,2013-12-19 21:00:00,
2013-12-19 16:05:00,43.4,36.7,29.96,South,187,0.0,1.0,77,0.00,,---,0.17,VWS V14.01,2013-12-19 21:05:00,
2013-12-19 16:10:00,43.4,36.7,29.95,South,169,0.0,1.0,77,0.00,,---,0.17,VWS V14.01,2013-12-19 21:10:00,
2013-12-19 16:15:00,43.3,36.6,29.95,SE,140,1.0,1.0,77,0.00,,---,0.17,VWS V14.01,2013-12-19 21:15:00,
2013-12-19 16:20:00,43.2,36.8,29.96,SE,146,0.0,2.0,78,0.00,,---,0.17,VWS V14.01,2013-12-19 21:20:00,
2013-12-19 16:25:00,43.0,36.3,29.96,SE,132,1.0,2.0,77,0.00,,---,0.17,VWS V14.01,2013-12-19 21:25:00,
2013-12-19 16:30:00,42.8,36.4,29.95,ESE,114,0.0,0.0,78,0.00,,---,0.17,VWS V14.01,2013-12-19 21:30:00,
2013-12-19 16:35:00,42.6,36.2,29.96,South,174,0.0,1.0,78,0.00,,---,0.17,VWS V14.01,2013-12-19 21:35:00,
2013-12-19 16:40:00,42.5,36.1,29.96,SSE,148,0.0,2.0,78,0.00,,---,0.17,VWS V14.01,2013-12-19 21:40:00,
2013-12-19 16:45:00,42.3,35.9,29.96,ESE,120,1.0,2.0,78,0.00,,---,0.17,VWS V14.01,2013-12-19 21:45:00,
2013-12-19 16:51:00,42.1,35.8,29.96,SE,135,1.0,3.0,78,0.00,,---,0.17,VWS V14.01,2013-12-19 21:51:00,
2013-12-19 16:56:00,41.9,35.9,29.96,SSW,198,0.0,3.0,79,0.00,,---,0.17,VWS V14.01,2013-12-19 21:56:00,
2013-12-19 17:00:00,40.0,35.0,29.95,ESE,122,0.0,2.0,82,0.00,,---,0.17,VWS V14.01,2013-12-19 22:00:00,
2013-12-19 17:01:00,41.6,35.6,29.96,SSW,200,0.0,0.0,79,0.00,,---,0.17,VWS V14.01,2013-12-19 22:01:00,
2013-12-19 17:06:00,41.3,35.3,29.96,SSW,207,0.0,1.0,79,0.00,,---,0.17,VWS V14.01,2013-12-19 22:06:00,
2013-12-19 17:11:00,41.0,35.3,29.96,SE,136,1.0,1.0,80,0.00,,---,0.17,VWS V14.01,2013-12-19 22:11:00,
2013-12-19 17:16:00,40.8,35.1,29.96,SE,145,0.0,2.0,80,0.00,,---,0.17,VWS V14.01,2013-12-19 22:16:00,
2013-12-19 17:21:00,40.6,34.9,29.95,SE,129,0.0,2.0,80,0.00,,---,0.17,VWS V14.01,2013-12-19 22:21:00,
2013-12-19 17:26:00,40.4,35.0,29.95,SE,129,0.0,2.0,81,0.00,,---,0.17,VWS V14.01,2013-12-19 22:26:00,
2013-12-19 17:30:00,40.1,35.1,29.94,SE,139,3.0,5.0,82,0.00,,---,0.17,VWS V14.01,2013-12-19 22:30:00,
2013-12-19 17:31:00,40.3,34.9,29.95,South,176,1.0,1.0,81,0.00,,---,0.17,VWS V14.01,2013-12-19 22:31:00,
2013-12-19 17:36:00,40.3,34.9,29.95,SE,135,0.0,2.0,81,0.00,,---,0.17,VWS V14.01,2013-12-19 22:36:00,
2013-12-19 17:41:00,40.3,34.9,29.96,SE,143,0.0,2.0,81,0.00,,---,0.17,VWS V14.01,2013-12-19 22:41:00,
2013-12-19 17:46:00,40.1,35.1,29.95,SE,138,0.0,2.0,82,0.00,,---,0.17,VWS V14.01,2013-12-19 22:46:00,
2013-12-19 17:51:00,40.1,35.1,29.95,ESE,119,0.0,2.0,82,0.00,,---,0.17,VWS V14.01,2013-12-19 22:51:00,
2013-12-19 17:56:00,40.0,35.0,29.95,East,91,0.0,2.0,82,0.00,,---,0.17,VWS V14.01,2013-12-19 22:56:00,
2013-12-19 18:00:00,40.2,35.2,29.94,SE,136,2.0,6.0,82,0.00,,---,0.17,VWS V14.01,2013-12-19 23:00:00,
2013-12-19 18:01:00,39.9,34.9,29.95,South,170,1.0,2.0,82,0.00,,---,0.17,VWS V14.01,2013-12-19 23:01:00,
2013-12-19 18:06:00,39.8,34.8,29.95,SE,134,1.0,4.0,82,0.00,,---,0.17,VWS V14.01,2013-12-19 23:06:00,
2013-12-19 18:11:00,39.8,35.1,29.94,ESE,119,1.0,5.0,83,0.00,,---,0.17,VWS V14.01,2013-12-19 23:11:00,
2013-12-19 18:16:00,39.9,34.9,29.94,SSE,154,1.0,5.0,82,0.00,,---,0.17,VWS V14.01,2013-12-19 23:16:00,
2013-12-19 18:21:00,39.9,34.9,29.94,SE,138,4.0,5.0,82,0.00,,---,0.17,VWS V14.01,2013-12-19 23:21:00,
2013-12-19 18:26:00,39.9,34.9,29.94,SE,142,4.0,5.0,82,0.00,,---,0.17,VWS V14.01,2013-12-19 23:26:00,
2013-12-19 18:30:00,40.4,35.3,29.94,South,170,2.0,6.0,82,0.00,,---,0.17,VWS V14.01,2013-12-19 23:30:00,
2013-12-19 18:31:00,40.1,35.1,29.94,SE,129,1.0,4.0,82,0.00,,---,0.17,VWS V14.01,2013-12-19 23:31:00,
2013-12-19 18:36:00,40.2,35.2,29.94,ESE,115,3.0,5.0,82,0.00,,---,0.17,VWS V14.01,2013-12-19 23:36:00,
2013-12-19 18:41:00,40.2,35.2,29.94,SE,144,2.0,6.0,82,0.00,,---,0.17,VWS V14.01,2013-12-19 23:41:00,
2013-12-19 18:46:00,40.2,35.2,29.94,SE,124,3.0,6.0,82,0.00,,---,0.17,VWS V14.01,2013-12-19 23:46:00,
2013-12-19 18:51:00,40.1,35.1,29.94,SE,124,3.0,6.0,82,0.00,,---,0.17,VWS V14.01,2013-12-19 23:51:00,
2013-12-19 18:56:00,40.1,35.1,29.94,SSE,148,2.0,6.0,82,0.00,,---,0.17,VWS V14.01,2013-12-19 23:56:00,
2013-12-19 19:00:00,40.0,35.0,29.93,SE,131,0.0,5.0,82,0.00,,---,0.17,VWS V14.01,2013-12-20 00:00:00,
2013-12-19 19:01:00,40.3,35.2,29.93,SE,125,5.0,5.0,82,0.00,,---,0.17,VWS V14.01,2013-12-20 00:01:00,
2013-12-19 19:06:00,40.3,35.2,29.93,SSE,159,3.0,5.0,82,0.00,,---,0.17,VWS V14.01,2013-12-20 00:06:00,
2013-12-19 19:11:00,40.3,35.2,29.94,SSE,152,1.0,5.0,82,0.00,,---,0.17,VWS V14.01,2013-12-20 00:11:00,
2013-12-19 19:16:00,40.2,35.2,29.94,SE,139,2.0,5.0,82,0.00,,---,0.17,VWS V14.01,2013-12-20 00:16:00,
2013-12-19 19:21:00,40.2,35.2,29.94,SE,131,2.0,6.0,82,0.00,,---,0.17,VWS V14.01,2013-12-20 00:21:00,
2013-12-19 19:26:00,40.3,35.2,29.94,ESE,104,2.0,6.0,82,0.00,,---,0.17,VWS V14.01,2013-12-20 00:26:00,
2013-12-19 19:30:00,39.7,35.0,29.92,ESE,113,0.0,4.0,83,0.00,,---,0.17,VWS V14.01,2013-12-20 00:30:00,
2013-12-19 19:31:00,40.4,35.3,29.94,East,90,3.0,5.0,82,0.00,,---,0.17,VWS V14.01,2013-12-20 00:31:00,
2013-12-19 19:36:00,40.4,35.3,29.94,SE,136,2.0,5.0,82,0.00,,---,0.17,VWS V14.01,2013-12-20 00:36:00,
2013-12-19 19:41:00,40.3,35.2,29.94,SE,129,1.0,5.0,82,0.00,,---,0.17,VWS V14.01,2013-12-20 00:41:00,
2013-12-19 19:46:00,40.2,35.2,29.94,SE,131,1.0,5.0,82,0.00,,---,0.17,VWS V14.01,2013-12-20 00:46:00,
2013-12-19 19:51:00,40.1,35.1,29.93,SE,131,0.0,5.0,82,0.00,,---,0.17,VWS V14.01,2013-12-20 00:51:00,
2013-12-19 19:56:00,40.1,35.1,29.93,SE,131,0.0,5.0,82,0.00,,---,0.17,VWS V14.01,2013-12-20 00:56:00,
2013-12-19 20:00:00,39.4,35.0,29.91,SE,142,0.0,2.0,84,0.00,,---,0.17,VWS V14.01,2013-12-20 01:00:00,
2013-12-19 20:01:00,40.0,35.0,29.93,SE,131,0.0,0.0,82,0.00,,---,0.17,VWS V14.01,2013-12-20 01:01:00,
2013-12-19 20:06:00,39.8,35.1,29.93,South,181,0.0,1.0,83,0.00,,---,0.17,VWS V14.01,2013-12-20 01:06:00,
2013-12-19 20:11:00,39.8,35.1,29.93,WSW,252,0.0,1.0,83,0.00,,---,0.17,VWS V14.01,2013-12-20 01:11:00,
2013-12-19 20:16:00,39.8,35.1,29.92,SE,142,2.0,4.0,83,0.00,,---,0.17,VWS V14.01,2013-12-20 01:16:00,
2013-12-19 20:21:00,39.8,35.1,29.92,SSE,165,0.0,4.0,83,0.00,,---,0.17,VWS V14.01,2013-12-20 01:21:00,
2013-12-19 20:26:00,39.8,35.1,29.92,ESE,113,0.0,4.0,83,0.00,,---,0.17,VWS V14.01,2013-12-20 01:26:00,
2013-12-19 20:30:00,39.4,35.3,29.91,SE,146,0.0,2.0,85,0.00,,---,0.17,VWS V14.01,2013-12-20 01:30:00,
2013-12-19 20:31:00,39.6,34.9,29.92,ESE,113,0.0,0.0,83,0.00,,---,0.17,VWS V14.01,2013-12-20 01:31:00,
2013-12-19 20:36:00,39.5,34.8,29.92,ESE,115,0.0,0.0,83,0.00,,---,0.17,VWS V14.01,2013-12-20 01:36:00,
2013-12-19 20:41:00,39.4,35.0,29.92,SE,124,0.0,2.0,84,0.00,,---,0.17,VWS V14.01,2013-12-20 01:41:00,
2013-12-19 20:46:00,39.3,34.9,29.92,ESE,108,2.0,2.0,84,0.00,,---,0.17,VWS V14.01,2013-12-20 01:46:00,
2013-12-19 20:51:00,39.5,35.1,29.92,South,184,0.0,2.0,84,0.00,,---,0.17,VWS V14.01,2013-12-20 01:51:00,
2013-12-19 20:56:00,39.5,34.8,29.92,SE,142,0.0,2.0,83,0.00,,---,0.17,VWS V14.01,2013-12-20 01:56:00,
2013-12-19 21:00:00,39.1,35.3,29.90,SE,134,0.0,2.0,86,0.00,,---,0.17,VWS V14.01,2013-12-20 02:00:00,
2013-12-19 21:01:00,39.4,35.0,29.91,SE,142,0.0,0.0,84,0.00,,---,0.17,VWS V14.01,2013-12-20 02:01:00,
2013-12-19 21:06:00,39.4,35.0,29.91,SE,127,0.0,2.0,84,0.00,,---,0.17,VWS V14.01,2013-12-20 02:06:00,
2013-12-19 21:11:00,39.4,35.0,29.91,ESE,121,0.0,2.0,84,0.00,,---,0.17,VWS V14.01,2013-12-20 02:11:00,
2013-12-19 21:16:00,39.5,35.1,29.91,East,83,1.0,2.0,84,0.00,,---,0.17,VWS V14.01,2013-12-20 02:16:00,
2013-12-19 21:21:00,39.5,35.4,29.91,SSE,153,0.0,2.0,85,0.00,,---,0.17,VWS V14.01,2013-12-20 02:21:00,
2013-12-19 21:26:00,39.4,35.3,29.91,SE,146,0.0,2.0,85,0.00,,---,0.17,VWS V14.01,2013-12-20 02:26:00,
2013-12-19 21:30:00,38.6,34.8,29.89,SE,134,0.0,2.0,86,0.00,,---,0.17,VWS V14.01,2013-12-20 02:30:00,
2013-12-19 21:31:00,39.4,35.3,29.91,SE,146,0.0,0.0,85,0.00,,---,0.17,VWS V14.01,2013-12-20 02:31:00,
2013-12-19 21:37:00,39.4,35.6,29.90,SE,141,0.0,2.0,86,0.00,,---,0.17,VWS V14.01,2013-12-20 02:37:00,
2013-12-19 21:42:00,39.4,35.3,29.90,SE,129,0.0,2.0,85,0.00,,---,0.17,VWS V14.01,2013-12-20 02:42:00,
2013-12-19 21:47:00,39.3,35.2,29.90,SE,131,0.0,2.0,85,0.00,,---,0.17,VWS V14.01,2013-12-20 02:47:00,
2013-12-19 21:52:00,39.3,35.5,29.90,SE,134,0.0,2.0,86,0.00,,---,0.17,VWS V14.01,2013-12-20 02:52:00,
2013-12-19 21:57:00,39.2,35.4,29.90,SE,134,0.0,2.0,86,0.00,,---,0.17,VWS V14.01,2013-12-20 02:57:00,
2013-12-19 22:00:00,39.1,35.6,29.88,SE,124,0.0,2.0,87,0.00,,---,0.17,VWS V14.01,2013-12-20 03:00:00,
2013-12-19 22:02:00,39.1,35.3,29.90,SE,134,0.0,0.0,86,0.00,,---,0.17,VWS V14.01,2013-12-20 03:02:00,
2013-12-19 22:07:00,38.9,35.1,29.89,SE,134,0.0,0.0,86,0.00,,---,0.17,VWS V14.01,2013-12-20 03:07:00,
2013-12-19 22:12:00,38.9,35.1,29.89,SE,134,0.0,0.0,86,0.00,,---,0.17,VWS V14.01,2013-12-20 03:12:00,
2013-12-19 22:17:00,39.0,35.2,29.89,SE,134,0.0,0.0,86,0.00,,---,0.17,VWS V14.01,2013-12-20 03:17:00,
2013-12-19 22:22:00,38.8,35.0,29.89,SE,139,0.0,0.0,86,0.00,,---,0.17,VWS V14.01,2013-12-20 03:22:00,
2013-12-19 22:27:00,38.8,35.0,29.89,SE,139,0.0,0.0,86,0.00,,---,0.17,VWS V14.01,2013-12-20 03:27:00,
2013-12-19 22:30:00,40.9,37.0,29.87,ESE,122,2.0,5.0,86,0.00,,---,0.17,VWS V14.01,2013-12-20 03:30:00,
2013-12-19 22:32:00,38.6,35.1,29.89,SE,134,0.0,1.0,87,0.00,,---,0.17,VWS V14.01,2013-12-20 03:32:00,
2013-12-19 22:37:00,38.5,34.7,29.89,SE,134,0.0,1.0,86,0.00,,---,0.17,VWS V14.01,2013-12-20 03:37:00,
2013-12-19 22:42:00,38.6,35.1,29.88,ENE,76,1.0,2.0,87,0.00,,---,0.17,VWS V14.01,2013-12-20 03:42:00,
2013-12-19 22:47:00,38.9,35.4,29.88,SE,134,0.0,2.0,87,0.00,,---,0.17,VWS V14.01,2013-12-20 03:47:00,
2013-12-19 22:52:00,38.7,34.9,29.88,SE,134,0.0,2.0,86,0.00,,---,0.17,VWS V14.01,2013-12-20 03:52:00,
2013-12-19 22:57:00,39.0,35.8,29.88,SE,142,0.0,2.0,88,0.00,,---,0.17,VWS V14.01,2013-12-20 03:57:00,
2013-12-19 23:00:00,41.5,37.6,29.87,SE,144,0.0,5.0,86,0.00,,---,0.00,VWS V14.01,2013-12-20 04:00:00,
2013-12-19 23:02:00,39.2,35.7,29.88,SE,139,0.0,2.0,87,0.00,,---,0.17,VWS V14.01,2013-12-20 04:02:00,
2013-12-19 23:07:00,39.7,36.4,29.87,ESE,115,1.0,2.0,88,0.00,,---,0.17,VWS V14.01,2013-12-20 04:07:00,
2013-12-19 23:12:00,40.1,36.5,29.87,SSE,148,2.0,5.0,87,0.00,,---,0.17,VWS V14.01,2013-12-20 04:12:00,
2013-12-19 23:17:00,40.4,36.5,29.87,SE,146,2.0,5.0,86,0.00,,---,0.17,VWS V14.01,2013-12-20 04:17:00,
2013-12-19 23:22:00,40.6,36.8,29.87,South,179,2.0,5.0,86,0.00,,---,0.17,VWS V14.01,2013-12-20 04:22:00,
2013-12-19 23:27:00,40.8,36.9,29.87,SSE,156,2.0,5.0,86,0.00,,---,0.17,VWS V14.01,2013-12-20 04:27:00,
2013-12-19 23:30:00,41.9,38.0,29.86,SE,134,2.0,5.0,86,0.00,,---,0.00,VWS V14.01,2013-12-20 04:30:00,
2013-12-19 23:32:00,40.9,37.0,29.87,ESE,123,1.0,2.0,86,0.00,,---,0.17,VWS V14.01,2013-12-20 04:32:00,
2013-12-19 23:37:00,41.0,37.1,29.87,SE,136,1.0,5.0,86,0.00,,---,0.17,VWS V14.01,2013-12-20 04:37:00,
2013-12-19 23:42:00,41.2,37.3,29.87,SE,146,2.0,5.0,86,0.00,,---,0.17,VWS V14.01,2013-12-20 04:42:00,
2013-12-19 23:47:00,41.3,37.4,29.87,SE,129,1.0,5.0,86,0.00,,---,0.17,VWS V14.01,2013-12-20 04:47:00,
2013-12-19 23:52:00,41.4,37.5,29.87,South,173,1.0,5.0,86,0.00,,---,0.17,VWS V14.01,2013-12-20 04:52:00,
2013-12-19 23:57:00,41.5,37.6,29.87,South,175,0.0,5.0,86,0.00,,---,0.17,VWS V14.01,2013-12-20 04:57:00,